createdAt,value
2023-01-03T00:02:17.107Z,78.91
2023-01-03T00:04:49.121Z,78.05
2023-01-03T00:07:33.460Z,78.68
2023-01-03T00:10:04.326Z,81.76
2023-01-03T00:12:32.614Z,79.24
2023-01-03T00:14:59.885Z,78.33
2023-01-03T00:17:26.810Z,79.29
2023-01-03T00:19:53.210Z,79.90
2023-01-03T00:22:19.652Z,81.06
2023-01-03T00:24:47.793Z,82.06
2023-01-03T00:27:15.882Z,79.58
2023-01-03T00:29:42.732Z,79.58
2023-01-03T00:32:09.766Z,85.48
2023-01-03T00:34:37.508Z,82.90
2023-01-03T00:37:04.028Z,82.42
2023-01-03T00:39:30.484Z,81.73
2023-01-03T00:41:57.227Z,84.40
2023-01-03T00:44:23.836Z,84.23
2023-01-03T00:46:50.252Z,83.56
2023-01-03T00:49:16.676Z,85.32
2023-01-03T00:51:44.023Z,79.71
2023-01-03T00:54:11.829Z,81.73
2023-01-03T00:56:41.326Z,81.79
2023-01-03T00:59:08.452Z,80.95
2023-01-03T01:01:46.225Z,83.81
2023-01-03T01:04:19.914Z,79.73
2023-01-03T01:06:59.229Z,82.82
2023-01-03T01:09:29.281Z,84.32
2023-01-03T01:11:56.260Z,83.66
2023-01-03T01:14:25.167Z,83.78
2023-01-03T01:17:00.211Z,83.11
2023-01-03T01:19:29.671Z,80.92
2023-01-03T01:21:56.460Z,81.71
2023-01-03T01:24:22.872Z,81.70
2023-01-03T01:26:50.096Z,81.70
2023-01-03T01:29:17.884Z,83.39
2023-01-03T01:31:46.375Z,82.55
2023-01-03T01:34:13.587Z,82.20
2023-01-03T01:36:42.262Z,85.04
2023-01-03T01:39:15.371Z,83.84
2023-01-03T01:42:02.256Z,85.88
2023-01-03T01:44:40.762Z,83.55
2023-01-03T01:47:16.274Z,86.90
2023-01-03T01:49:43.870Z,84.85
2023-01-03T01:52:13.804Z,82.80
2023-01-03T01:54:41.488Z,86.12
2023-01-03T01:57:11.646Z,86.80
2023-01-03T01:59:38.107Z,83.51
2023-01-03T02:02:05.507Z,85.02
2023-01-03T02:04:35.544Z,86.79
2023-01-03T02:07:02.945Z,85.50
2023-01-03T02:09:32.127Z,83.82
2023-01-03T02:12:23.024Z,82.54
2023-01-03T02:15:07.971Z,86.70
2023-01-03T02:18:07.819Z,84.22
2023-01-03T02:21:20.383Z,83.68
2023-01-03T02:24:07.179Z,84.25
2023-01-03T02:26:45.134Z,86.02
2023-01-03T02:29:54.729Z,84.63
2023-01-03T02:32:38.586Z,86.86
2023-01-03T02:35:29.493Z,85.17
2023-01-03T02:38:07.496Z,85.79
2023-01-03T02:40:43.103Z,86.95
2023-01-03T02:43:20.602Z,87.12
2023-01-03T02:46:12.647Z,85.66
2023-01-03T02:48:50.982Z,86.05
2023-01-03T02:51:27.776Z,86.79
2023-01-03T02:53:55.558Z,82.63
2023-01-03T02:56:28.483Z,84.91
2023-01-03T02:59:00.145Z,85.16
2023-01-03T03:01:29.144Z,88.38
2023-01-03T03:03:58.102Z,86.83
2023-01-03T03:06:50.868Z,86.43
2023-01-03T03:09:17.515Z,87.99
2023-01-03T03:12:03.733Z,86.85
2023-01-03T03:14:40.744Z,87.75
2023-01-03T03:17:13.757Z,85.30
2023-01-03T03:20:04.536Z,82.81
2023-01-03T03:23:17.347Z,85.36
2023-01-03T03:25:54.608Z,86.06
2023-01-03T03:28:35.961Z,84.39
2023-01-03T03:31:02.605Z,86.41
2023-01-03T03:33:33.514Z,88.44
2023-01-03T03:36:06.414Z,87.56
2023-01-03T03:38:40.767Z,87.49
2023-01-03T03:41:58.247Z,87.31
2023-01-03T03:44:54.352Z,84.61
2023-01-03T03:47:39.884Z,87.99
2023-01-03T03:50:14.580Z,86.03
2023-01-03T03:52:46.399Z,87.56
2023-01-03T03:55:37.606Z,88.73
2023-01-03T03:58:09.951Z,87.95
2023-01-03T04:00:39.978Z,88.52
2023-01-03T04:03:08.676Z,87.83
2023-01-03T04:05:41.379Z,87.99
2023-01-03T04:08:08.441Z,86.57
2023-01-03T04:10:37.930Z,87.60
2023-01-03T04:13:05.281Z,87.29
2023-01-03T04:15:31.688Z,87.16
2023-01-03T04:17:58.231Z,86.41
2023-01-03T04:20:24.628Z,84.28
2023-01-03T04:22:51.223Z,87.41
2023-01-03T04:25:17.824Z,86.91
2023-01-03T04:27:44.470Z,86.74
2023-01-03T04:30:11.527Z,86.43
2023-01-03T04:32:38.553Z,83.29
2023-01-03T04:35:05.703Z,84.72
2023-01-03T04:37:32.490Z,84.01
2023-01-03T04:39:58.883Z,86.53
2023-01-03T04:42:44.359Z,85.76
2023-01-03T04:45:11.279Z,87.56
2023-01-03T04:47:37.683Z,83.23
2023-01-03T04:50:04.403Z,86.60
2023-01-03T04:52:30.852Z,85.78
2023-01-03T04:54:57.471Z,85.89
2023-01-03T04:57:23.889Z,85.43
2023-01-03T04:59:50.279Z,86.40
2023-01-03T05:02:16.973Z,87.22
2023-01-03T05:04:43.595Z,88.42
2023-01-03T05:07:10.354Z,86.16
2023-01-03T05:09:36.746Z,87.80
2023-01-03T05:12:03.528Z,88.18
2023-01-03T05:14:30.142Z,89.53
2023-01-03T05:16:56.869Z,89.21
2023-01-03T05:19:23.611Z,90.30
2023-01-03T05:22:08.605Z,89.28
2023-01-03T05:24:53.554Z,88.50
2023-01-03T05:27:20.162Z,89.48
2023-01-03T05:29:50.676Z,89.01
2023-01-03T05:32:17.169Z,88.72
2023-01-03T05:34:43.859Z,88.75
2023-01-03T05:37:10.243Z,87.62
2023-01-03T05:39:36.741Z,87.37
2023-01-03T05:42:03.795Z,86.58
2023-01-03T05:44:33.886Z,84.91
2023-01-03T05:47:02.119Z,84.94
2023-01-03T05:49:28.541Z,85.09
2023-01-03T05:51:54.927Z,85.30
2023-01-03T05:54:21.738Z,86.91
2023-01-03T05:56:48.359Z,88.50
2023-01-03T05:59:16.114Z,89.49
2023-01-03T06:01:42.930Z,88.13
2023-01-03T06:04:09.529Z,87.71
2023-01-03T06:06:35.970Z,88.90
2023-01-03T06:09:02.736Z,87.14
2023-01-03T06:11:29.438Z,87.89
2023-01-03T06:13:56.092Z,87.69
2023-01-03T06:16:41.494Z,87.84
2023-01-03T06:19:08.495Z,86.06
2023-01-03T06:21:35.927Z,83.88
2023-01-03T06:24:02.453Z,84.69
2023-01-03T06:26:29.106Z,87.34
2023-01-03T06:28:55.609Z,86.22
2023-01-03T06:31:22.093Z,86.76
2023-01-03T06:33:48.875Z,87.43
2023-01-03T06:36:18.299Z,86.69
2023-01-03T06:38:44.710Z,86.32
2023-01-03T06:41:12.928Z,87.24
2023-01-03T06:43:39.825Z,86.89
2023-01-03T06:46:25.641Z,86.74
2023-01-03T06:49:10.707Z,87.50
2023-01-03T06:51:56.287Z,85.85
2023-01-03T06:54:29.273Z,85.03
2023-01-03T06:56:56.069Z,85.86
2023-01-03T06:59:23.313Z,84.58
2023-01-03T07:01:51.736Z,85.20
2023-01-03T07:04:19.569Z,85.23
2023-01-03T07:06:46.238Z,84.48
2023-01-03T07:09:13.614Z,85.16
2023-01-03T07:11:40.676Z,86.28
2023-01-03T07:14:09.278Z,86.45
2023-01-03T07:16:38.469Z,84.33
2023-01-03T07:19:05.941Z,86.46
2023-01-03T07:21:33.771Z,86.21
2023-01-03T07:24:04.270Z,86.27
2023-01-03T07:26:33.286Z,86.74
2023-01-03T07:29:01.562Z,84.61
2023-01-03T07:31:28.170Z,86.19
2023-01-03T07:33:54.808Z,85.99
2023-01-03T07:36:22.042Z,85.62
2023-01-03T07:38:48.528Z,85.67
2023-01-03T07:41:16.123Z,85.22
2023-01-03T07:43:45.300Z,86.33
2023-01-03T07:46:16.984Z,87.65
2023-01-03T07:48:45.455Z,86.11
2023-01-03T07:51:15.217Z,85.90
2023-01-03T07:53:43.615Z,85.53
2023-01-03T07:56:14.908Z,85.27
2023-01-03T07:58:43.537Z,85.18
2023-01-03T08:01:33.079Z,85.75
2023-01-03T08:03:59.575Z,85.64
2023-01-03T08:06:25.959Z,86.83
2023-01-03T08:09:11.887Z,85.73
2023-01-03T08:11:57.019Z,85.14
2023-01-03T08:14:26.515Z,85.79
2023-01-03T08:16:54.682Z,85.80
2023-01-03T08:19:21.100Z,85.12
2023-01-03T08:21:47.546Z,84.65
2023-01-03T08:24:13.990Z,85.73
2023-01-03T08:26:40.382Z,85.23
2023-01-03T08:29:07.238Z,85.30
2023-01-03T08:31:37.319Z,85.16
2023-01-03T08:34:12.028Z,85.35
2023-01-03T08:36:48.300Z,86.13
2023-01-03T08:39:19.328Z,87.46
2023-01-03T08:41:50.666Z,85.59
2023-01-03T08:44:18.495Z,85.84
2023-01-03T08:46:51.245Z,84.45
2023-01-03T08:49:19.041Z,85.74
2023-01-03T08:51:46.011Z,84.58
2023-01-03T08:54:12.388Z,84.59
2023-01-03T08:56:39.614Z,84.20
2023-01-03T08:59:06.147Z,82.84
2023-01-03T09:01:32.902Z,84.79
2023-01-03T09:03:59.504Z,82.99
2023-01-03T09:06:25.934Z,83.41
2023-01-03T09:08:52.536Z,83.84
2023-01-03T09:11:18.947Z,84.67
2023-01-03T09:13:45.645Z,81.09
2023-01-03T09:16:13.593Z,83.16
2023-01-03T09:18:41.235Z,85.39
2023-01-03T09:21:09.030Z,84.18
2023-01-03T09:23:36.281Z,83.45
2023-01-03T09:26:03.202Z,85.25
2023-01-03T09:28:29.683Z,83.64
2023-01-03T09:30:56.627Z,83.64
2023-01-03T09:33:23.043Z,80.92
2023-01-03T09:35:52.963Z,81.58
2023-01-03T09:38:19.405Z,80.09
2023-01-03T09:40:46.883Z,83.41
2023-01-03T09:43:25.159Z,82.07
2023-01-03T09:45:55.324Z,80.91
2023-01-03T09:48:32.765Z,83.70
2023-01-03T09:51:19.552Z,80.12
2023-01-03T09:54:04.459Z,81.00
2023-01-03T09:56:49.260Z,82.71
2023-01-03T09:59:36.491Z,79.87
2023-01-03T10:02:49.530Z,81.39
2023-01-03T10:05:40.755Z,80.94
2023-01-03T10:08:31.314Z,79.45
2023-01-03T10:11:30.799Z,79.80
2023-01-03T10:14:12.476Z,78.94
2023-01-03T10:17:16.648Z,79.69
2023-01-03T10:20:08.208Z,79.76
2023-01-03T10:22:37.215Z,80.81
2023-01-03T10:25:17.883Z,79.23
2023-01-03T10:27:47.764Z,78.71
2023-01-03T10:30:33.733Z,76.33
2023-01-03T10:33:25.475Z,75.76
2023-01-03T10:35:52.056Z,77.31
2023-01-03T10:38:18.612Z,76.35
2023-01-03T10:40:53.373Z,75.34
2023-01-03T10:43:33.523Z,76.13
2023-01-03T10:46:13.513Z,74.43
2023-01-03T10:49:25.279Z,72.80
2023-01-03T10:51:46.492Z,71.69
2023-01-03T10:54:52.639Z,70.88
2023-01-03T10:57:48.098Z,70.06
2023-01-03T11:00:32.757Z,69.60
2023-01-03T11:03:24.964Z,69.13
2023-01-03T11:05:57.500Z,68.77
2023-01-03T11:08:48.125Z,68.06
2023-01-03T11:11:43.515Z,68.04
2023-01-03T11:14:09.863Z,67.27
2023-01-03T11:16:36.723Z,65.43
2023-01-03T11:19:06.159Z,64.42
2023-01-03T11:21:41.838Z,64.38
2023-01-03T11:24:27.249Z,67.06
2023-01-03T11:27:26.306Z,67.09
2023-01-03T11:30:10.045Z,64.42
2023-01-03T11:33:13.803Z,64.34
2023-01-03T11:36:00.886Z,64.38
2023-01-03T11:39:02.400Z,63.50
2023-01-03T11:41:55.758Z,61.73
2023-01-03T11:44:59.399Z,60.87
2023-01-03T11:47:40.849Z,58.23
2023-01-03T11:50:32.726Z,57.57
2023-01-03T11:53:04.649Z,57.31
2023-01-03T11:55:46.574Z,57.79
2023-01-03T11:58:44.848Z,57.39
2023-01-03T12:01:33.984Z,55.67
2023-01-03T12:04:07.389Z,55.21
2023-01-03T12:07:21.440Z,55.57
2023-01-03T12:09:52.625Z,59.40
2023-01-03T12:12:57.423Z,61.40
2023-01-03T12:16:01.615Z,64.22
2023-01-03T12:18:35.759Z,63.67
2023-01-03T12:21:19.752Z,65.17
2023-01-03T12:24:30.111Z,65.83
2023-01-03T12:27:04.291Z,65.96
2023-01-03T12:29:38.806Z,67.98
2023-01-03T12:32:11.758Z,68.00
2023-01-03T12:35:01.740Z,65.63
2023-01-03T12:37:33.783Z,65.98
2023-01-03T12:40:03.302Z,65.08
2023-01-03T12:42:32.940Z,66.08
2023-01-03T12:45:09.144Z,65.97
2023-01-03T12:47:40.856Z,67.94
2023-01-03T12:50:20.100Z,67.11
2023-01-03T12:53:05.611Z,66.20
2023-01-03T12:55:50.985Z,67.27
2023-01-03T12:58:55.116Z,68.87
2023-01-03T13:01:40.854Z,67.55
2023-01-03T13:04:23.961Z,66.65
2023-01-03T13:07:02.421Z,69.09
2023-01-03T13:09:35.951Z,67.34
2023-01-03T13:12:13.355Z,66.67
2023-01-03T13:14:56.542Z,65.97
2023-01-03T13:17:26.983Z,67.73
2023-01-03T13:19:56.548Z,69.02
2023-01-03T13:22:58.983Z,68.95
2023-01-03T13:25:36.316Z,69.09
2023-01-03T13:28:14.465Z,66.60
2023-01-03T13:30:43.103Z,68.04
2023-01-03T13:33:12.324Z,67.18
2023-01-03T13:35:44.870Z,69.94
2023-01-03T13:38:35.642Z,67.22
2023-01-03T13:41:26.349Z,68.94
2023-01-03T13:43:54.640Z,67.11
2023-01-03T13:46:32.787Z,67.56
2023-01-03T13:49:05.775Z,68.42
2023-01-03T13:51:41.474Z,67.44
2023-01-03T13:54:10.726Z,68.20
2023-01-03T13:56:59.112Z,67.52
2023-01-03T13:59:34.863Z,67.58
2023-01-03T14:02:35.751Z,67.97
2023-01-03T14:05:28.496Z,71.87
2023-01-03T14:08:21.210Z,68.44
2023-01-03T14:11:12.302Z,71.35
2023-01-03T14:13:46.965Z,71.74
2023-01-03T14:16:28.456Z,74.52
2023-01-03T14:19:01.975Z,70.61
2023-01-03T14:21:41.290Z,67.84
2023-01-03T14:24:17.842Z,70.44
2023-01-03T14:26:44.393Z,73.42
2023-01-03T14:29:17.611Z,69.11
2023-01-03T14:31:48.623Z,68.57
2023-01-03T14:34:27.380Z,69.51
2023-01-03T14:37:00.768Z,69.07
2023-01-03T14:41:59.511Z,69.99
2023-01-03T14:44:25.998Z,69.76
2023-01-03T14:47:04.107Z,69.54
2023-01-03T14:50:00.791Z,75.77
2023-01-03T14:52:42.040Z,76.36
2023-01-03T14:55:20.197Z,79.21
2023-01-03T14:57:48.555Z,78.68
2023-01-03T15:00:19.850Z,78.12
2023-01-03T15:02:48.511Z,74.39
2023-01-03T15:05:35.170Z,70.90
2023-01-03T15:08:14.800Z,72.40
2023-01-03T15:10:52.003Z,72.14
2023-01-03T15:13:38.025Z,72.57
2023-01-03T15:16:39.860Z,72.89
2023-01-03T15:19:15.710Z,74.07
2023-01-03T15:21:42.671Z,74.59
2023-01-03T15:24:16.558Z,74.28
2023-01-03T15:26:46.740Z,74.09
2023-01-03T15:29:29.672Z,74.83
2023-01-03T15:32:01.224Z,77.74
2023-01-03T15:34:33.580Z,80.31
2023-01-03T15:37:03.246Z,80.00
2023-01-03T15:39:41.871Z,77.46
2023-01-03T15:42:44.421Z,77.05
2023-01-03T15:45:19.299Z,75.40
2023-01-03T15:47:46.042Z,75.21
2023-01-03T15:50:15.744Z,75.71
2023-01-03T15:52:42.310Z,77.77
2023-01-03T15:55:12.967Z,77.62
2023-01-03T15:57:40.716Z,80.98
2023-01-03T16:00:10.678Z,81.75
2023-01-03T16:02:37.304Z,82.34
2023-01-03T16:05:04.039Z,81.63
2023-01-03T16:07:30.811Z,79.45
2023-01-03T16:09:57.264Z,78.59
2023-01-03T16:12:35.327Z,79.87
2023-01-03T16:15:04.380Z,78.93
2023-01-03T16:17:31.415Z,81.89
2023-01-03T16:20:01.291Z,78.09
2023-01-03T16:22:35.062Z,78.05
2023-01-03T16:25:03.279Z,77.88
2023-01-03T16:27:29.706Z,77.79
2023-01-03T16:29:56.114Z,77.76
2023-01-03T16:32:29.131Z,77.98
2023-01-03T16:35:07.325Z,78.25
2023-01-03T16:37:33.816Z,79.62
2023-01-03T16:40:01.265Z,79.11
2023-01-03T16:42:28.008Z,79.90
2023-01-03T16:44:55.487Z,79.66
2023-01-03T16:47:31.204Z,79.73
2023-01-03T16:50:06.503Z,79.04
2023-01-03T16:52:41.290Z,80.23
2023-01-03T16:55:20.229Z,80.21
2023-01-03T16:57:53.871Z,80.25
2023-01-03T17:00:32.276Z,80.81
2023-01-03T17:03:00.778Z,80.57
2023-01-03T17:05:31.790Z,81.56
2023-01-03T17:08:05.340Z,80.54
2023-01-03T17:13:40.780Z,80.45
2023-01-03T17:16:15.858Z,79.96
2023-01-03T17:18:44.972Z,80.21
2023-01-03T17:21:26.532Z,79.78
2023-01-03T17:23:58.786Z,80.57
2023-01-03T17:26:29.076Z,80.56
2023-01-03T17:28:56.391Z,80.32
2023-01-03T17:31:26.644Z,80.54
2023-01-03T17:33:58.038Z,80.38
2023-01-03T17:36:34.972Z,80.58
2023-01-03T17:39:03.521Z,80.83
2023-01-03T17:41:51.882Z,80.20
2023-01-03T17:44:19.553Z,80.56
2023-01-03T17:47:04.612Z,80.57
2023-01-03T17:49:31.863Z,80.68
2023-01-03T17:52:08.427Z,80.25
2023-01-03T17:54:37.951Z,80.16
2023-01-03T17:57:07.090Z,81.10
2023-01-03T17:59:33.747Z,81.02
2023-01-03T18:02:00.631Z,80.94
2023-01-03T18:04:50.156Z,80.46
2023-01-03T18:07:23.352Z,80.69
2023-01-03T18:09:59.671Z,80.41
2023-01-03T18:12:26.679Z,80.34
2023-01-03T18:14:53.177Z,80.50
2023-01-03T18:17:28.298Z,79.93
2023-01-03T18:19:57.297Z,79.76
2023-01-03T18:22:24.970Z,79.36
2023-01-03T18:24:52.734Z,80.33
2023-01-03T18:27:22.850Z,79.72
2023-01-03T18:29:49.853Z,79.66
2023-01-03T18:32:30.782Z,79.40
2023-01-03T18:34:58.670Z,79.04
2023-01-03T18:37:34.927Z,79.37
2023-01-03T18:40:06.012Z,79.03
2023-01-03T18:42:51.308Z,80.41
2023-01-03T18:45:17.811Z,79.19
2023-01-03T18:47:47.775Z,78.74
2023-01-03T18:50:20.629Z,79.14
2023-01-03T18:52:49.359Z,79.46
2023-01-03T18:55:36.041Z,79.10
2023-01-03T18:58:23.595Z,79.65
2023-01-03T19:00:50.429Z,79.29
2023-01-03T19:03:22.789Z,78.89
2023-01-03T19:05:50.072Z,78.89
2023-01-03T19:08:19.671Z,78.75
2023-01-03T19:10:47.126Z,79.24
2023-01-03T19:13:27.261Z,79.85
2023-01-03T19:15:55.035Z,78.67
2023-01-03T19:18:27.447Z,78.88
2023-01-03T19:20:54.222Z,78.62
2023-01-03T19:23:27.079Z,78.80
2023-01-03T19:25:55.072Z,78.91
2023-01-03T19:28:25.510Z,78.84
2023-01-03T19:30:52.433Z,78.22
2023-01-03T19:33:21.544Z,78.68
2023-01-03T19:35:49.090Z,78.75
2023-01-03T19:38:15.545Z,79.03
2023-01-03T19:40:46.490Z,78.71
2023-01-03T19:43:23.252Z,78.36
2023-01-03T19:45:55.572Z,77.99
2023-01-03T19:48:24.816Z,78.60
2023-01-03T19:50:58.493Z,78.37
2023-01-03T19:53:27.368Z,78.09
2023-01-03T19:55:58.169Z,78.79
2023-01-03T19:58:33.961Z,78.35
2023-01-03T20:01:03.704Z,79.18
2023-01-03T20:03:39.360Z,79.07
2023-01-03T20:06:12.122Z,79.39
2023-01-03T20:08:40.716Z,79.86
2023-01-03T20:11:16.275Z,79.38
2023-01-03T20:13:43.355Z,80.16
2023-01-03T20:16:19.329Z,80.34
2023-01-03T20:18:48.071Z,80.40
2023-01-03T20:21:29.383Z,80.12
2023-01-03T20:24:07.595Z,80.35
2023-01-03T20:26:34.775Z,80.04
2023-01-03T20:29:10.558Z,80.15
2023-01-03T20:31:37.559Z,81.24
2023-01-03T20:34:11.894Z,80.35
2023-01-03T20:36:50.486Z,81.17
2023-01-03T20:39:28.029Z,80.73
2023-01-03T20:41:58.603Z,83.30
2023-01-03T20:47:15.123Z,80.74
2023-01-03T20:49:42.758Z,79.88
2023-01-03T20:52:21.525Z,80.53
2023-01-03T20:54:58.301Z,80.56
2023-01-03T20:57:26.153Z,80.11
2023-01-03T20:59:54.260Z,81.16
2023-01-03T21:02:22.449Z,80.68
2023-01-03T21:04:50.721Z,80.44
2023-01-03T21:07:52.792Z,80.59
2023-01-03T21:10:25.867Z,80.86
2023-01-03T21:12:52.264Z,80.74
2023-01-03T21:15:18.922Z,81.14
2023-01-03T21:17:50.623Z,80.86
2023-01-03T21:20:20.383Z,80.62
2023-01-03T21:22:47.071Z,81.04
2023-01-03T21:25:22.567Z,80.78
2023-01-03T21:27:50.607Z,80.94
2023-01-03T21:30:19.259Z,80.58
2023-01-03T21:32:46.374Z,80.50
2023-01-03T21:35:16.535Z,80.74
2023-01-03T21:37:43.627Z,80.86
2023-01-03T21:40:27.596Z,80.40
2023-01-03T21:43:03.753Z,80.79
2023-01-03T21:45:40.105Z,80.94
2023-01-03T21:48:10.828Z,80.89
2023-01-03T21:50:39.490Z,81.11
2023-01-03T21:53:07.989Z,80.47
2023-01-03T21:55:34.487Z,80.35
2023-01-03T21:58:00.991Z,80.89
2023-01-03T22:00:28.032Z,81.49
2023-01-03T22:03:13.344Z,80.43
2023-01-03T22:05:40.011Z,80.46
2023-01-03T22:08:06.653Z,81.32
2023-01-03T22:10:34.197Z,80.54
2023-01-03T22:13:05.216Z,80.92
2023-01-03T22:15:32.294Z,80.46
2023-01-03T22:18:00.016Z,80.33
2023-01-03T22:20:34.823Z,80.48
2023-01-03T22:23:06.423Z,80.73
2023-01-03T22:25:33.154Z,80.56
2023-01-03T22:27:59.656Z,80.42
2023-01-03T22:30:28.677Z,80.51
2023-01-03T22:32:58.126Z,80.61
2023-01-03T22:35:24.666Z,80.51
2023-01-03T22:37:51.163Z,80.11
2023-01-03T22:40:18.220Z,80.21
2023-01-03T22:42:44.652Z,80.76
2023-01-03T22:45:15.763Z,80.55
2023-01-03T22:47:42.387Z,80.30
2023-01-03T22:50:10.408Z,80.05
2023-01-03T22:52:40.022Z,80.36
2023-01-03T22:55:07.531Z,79.58
2023-01-03T22:57:33.915Z,79.93
2023-01-03T23:00:00.817Z,79.89
2023-01-03T23:02:29.284Z,79.65
2023-01-03T23:04:56.796Z,80.24
2023-01-03T23:07:23.192Z,79.42
2023-01-03T23:09:49.798Z,79.98
2023-01-03T23:12:54.632Z,79.49
2023-01-03T23:15:21.260Z,80.03
2023-01-03T23:17:56.635Z,79.93
2023-01-03T23:20:33.184Z,80.05
2023-01-03T23:23:02.948Z,80.33
2023-01-03T23:25:31.208Z,80.54
2023-01-03T23:27:57.601Z,80.40
2023-01-03T23:30:24.291Z,80.44
2023-01-03T23:32:50.726Z,80.70
2023-01-03T23:35:18.573Z,79.99
2023-01-03T23:37:48.221Z,80.28
2023-01-03T23:40:15.073Z,80.32
2023-01-03T23:42:41.524Z,80.22
2023-01-03T23:45:08.132Z,80.16
2023-01-03T23:47:34.550Z,80.18
2023-01-03T23:50:00.975Z,79.46
2023-01-03T23:52:27.559Z,79.76
2023-01-03T23:55:00.053Z,79.60
2023-01-03T23:57:28.910Z,80.24
2023-01-03T23:59:55.298Z,79.53
